Time;durP1;ratioP1;P1;durP2;ratioP2;P2;SDS_P1;SDS_P2;PMS_P1;PMS_P2;Temp;Humidity;BMP_temperature;BMP_pressure;BME280_temperature;BME280_humidity;BME280_pressure;Samples;Min_cycle;Max_cycle;Signal;HPM_P1;HPM_P2
2023/12/31 00:01:01;;;;;;;2.10;1.57;;;9.20;1.00;;;;;;2613826;54;20687;-74
2023/12/31 00:06:48;;;;;;;4.33;1.50;;;9.10;1.00;;;;;;2613287;54;20130;-74
2023/12/31 00:12:37;;;;;;;1.43;1.30;;;8.90;1.00;;;;;;2613882;54;20247;-76
2023/12/31 00:18:24;;;;;;;3.43;1.40;;;9.00;1.00;;;;;;2614939;54;20395;-75
2023/12/31 00:24:12;;;;;;;2.10;1.10;;;9.00;1.00;;;;;;2615187;54;20134;-76
2023/12/31 00:30:00;;;;;;;3.07;1.47;;;8.90;1.00;;;;;;2615557;39;20927;-74
2023/12/31 00:39:25;;;;;;;2.70;1.70;;;9.20;1.00;;;;;;2614803;54;20993;-73
2023/12/31 00:45:13;;;;;;;3.00;1.97;;;9.20;1.00;;;;;;2615411;39;20744;-74
2023/12/31 00:51:05;;;;;;;3.20;1.60;;;9.00;1.00;;;;;;2615210;54;20162;-73
2023/12/31 00:56:52;;;;;;;3.30;2.47;;;9.10;1.00;;;;;;2614135;54;20481;-73
2023/12/31 01:02:40;;;;;;;3.30;2.90;;;9.20;1.00;;;;;;2615503;39;20521;-73
2023/12/31 01:08:28;;;;;;;3.20;2.30;;;9.00;1.00;;;;;;2614779;54;20174;-74
2023/12/31 01:14:16;;;;;;;3.30;2.53;;;9.00;1.00;;;;;;2615089;54;20158;-74
2023/12/31 01:20:04;;;;;;;2.53;2.20;;;9.20;1.00;;;;;;2614923;54;20185;-74
2023/12/31 01:25:51;;;;;;;3.80;2.87;;;8.80;1.00;;;;;;2615615;39;20750;-73
2023/12/31 01:31:39;;;;;;;4.07;3.00;;;9.00;1.00;;;;;;2614521;54;21646;-74
2023/12/31 01:37:36;;;;;;;4.70;2.80;;;9.00;1.00;;;;;;2613234;39;20561;-73
2023/12/31 01:43:23;;;;;;;3.93;2.97;;;9.20;1.00;;;;;;2613606;54;20179;-77
2023/12/31 01:49:11;;;;;;;2.73;2.50;;;9.20;1.00;;;;;;2613159;46;20780;-78
2023/12/31 01:55:01;;;;;;;3.57;2.60;;;9.40;1.00;;;;;;2613247;54;20377;-77
2023/12/31 01:58:22;;;;;;;3.07;2.40;;;9.40;1.00;;;;;;2612959;54;20435;-78
2023/12/31 02:04:09;;;;;;;2.80;2.27;;;9.40;1.00;;;;;;2613420;54;20424;-78
2023/12/31 02:09:57;;;;;;;4.27;2.53;;;9.60;1.00;;;;;;2613207;54;20123;-78
2023/12/31 02:15:44;;;;;;;2.57;2.30;;;9.50;1.00;;;;;;2615232;39;20616;-79
2023/12/31 02:21:31;;;;;;;3.03;2.67;;;9.50;1.00;;;;;;2614749;54;20725;-78
2023/12/31 02:27:19;;;;;;;2.80;2.50;;;9.60;1.00;;;;;;2614384;54;20147;-78
2023/12/31 02:33:07;;;;;;;2.57;2.10;;;9.30;1.00;;;;;;2614522;54;20154;-77
2023/12/31 02:38:54;;;;;;;2.90;1.87;;;9.40;1.00;;;;;;2614515;54;20114;-79
2023/12/31 02:44:42;;;;;;;2.53;2.23;;;9.30;1.00;;;;;;2615194;54;20183;-78
2023/12/31 02:50:31;;;;;;;2.60;2.40;;;9.30;1.00;;;;;;2614614;54;20129;-79
2023/12/31 02:56:18;;;;;;;3.20;2.13;;;9.40;1.00;;;;;;2614584;54;20415;-78
2023/12/31 03:02:06;;;;;;;3.90;3.20;;;9.20;1.00;;;;;;2614370;54;20126;-77
2023/12/31 03:07:54;;;;;;;4.83;2.90;;;9.30;1.00;;;;;;2614328;54;20146;-79
2023/12/31 03:13:42;;;;;;;2.80;2.13;;;9.40;1.00;;;;;;2614675;54;20159;-76
2023/12/31 03:19:35;;;;;;;3.33;3.00;;;9.20;1.00;;;;;;2614608;54;20367;-72
2023/12/31 03:25:23;;;;;;;3.57;2.87;;;9.40;1.00;;;;;;2614568;54;20390;-80
2023/12/31 03:31:11;;;;;;;3.13;2.50;;;9.30;1.00;;;;;;2614334;39;20536;-78
2023/12/31 03:40:23;;;;;;;3.50;3.20;;;9.40;1.00;;;;;;2615165;54;20921;-78
2023/12/31 03:46:11;;;;;;;9.67;2.83;;;9.30;1.00;;;;;;2615065;54;20848;-77
2023/12/31 03:51:59;;;;;;;3.30;2.70;;;9.30;1.00;;;;;;2615042;54;20660;-76
2023/12/31 03:57:47;;;;;;;3.37;2.77;;;9.20;1.00;;;;;;2615149;54;20121;-76
2023/12/31 04:03:34;;;;;;;2.90;2.60;;;9.40;1.00;;;;;;2615331;54;20154;-76
2023/12/31 04:06:19;;;;;;;4.67;3.23;;;9.40;1.00;;;;;;2614777;54;21197;-77
2023/12/31 04:08:46;;;;;;;4.50;2.33;;;9.50;1.00;;;;;;2615250;54;20189;-77
2023/12/31 04:14:33;;;;;;;3.43;3.10;;;9.60;1.00;;;;;;2615139;54;20371;-77
2023/12/31 04:20:21;;;;;;;3.17;2.37;;;9.50;1.00;;;;;;2614982;54;20134;-78
2023/12/31 04:26:09;;;;;;;3.20;2.43;;;9.80;1.00;;;;;;2615008;54;20143;-79
2023/12/31 04:31:58;;;;;;;6.93;3.77;;;9.50;1.00;;;;;;2615166;54;20400;-77
2023/12/31 04:37:45;;;;;;;4.07;2.80;;;9.70;1.00;;;;;;2614218;54;20439;-77
2023/12/31 04:43:33;;;;;;;3.70;2.67;;;9.60;1.00;;;;;;2615273;54;20235;-77
2023/12/31 04:49:21;;;;;;;3.37;2.33;;;9.60;1.00;;;;;;2615181;39;20253;-77
2023/12/31 04:55:09;;;;;;;3.07;2.70;;;9.80;1.00;;;;;;2614943;54;20117;-78
2023/12/31 05:00:56;;;;;;;2.40;2.10;;;9.70;1.00;;;;;;2615023;54;20235;-79
2023/12/31 05:06:44;;;;;;;3.77;2.80;;;9.80;1.00;;;;;;2614690;54;20549;-78
2023/12/31 05:12:32;;;;;;;3.57;2.13;;;9.80;1.00;;;;;;2615064;54;20151;-78
2023/12/31 05:18:19;;;;;;;3.50;2.53;;;9.80;1.00;;;;;;2615076;54;20130;-78
2023/12/31 05:24:07;;;;;;;2.70;2.40;;;9.80;1.00;;;;;;2615529;54;20134;-78
2023/12/31 05:29:56;;;;;;;2.40;2.17;;;9.90;1.00;;;;;;2615409;54;20989;-78
2023/12/31 05:35:44;;;;;;;3.03;2.43;;;9.80;1.00;;;;;;2614844;54;20386;-78
2023/12/31 05:41:32;;;;;;;3.70;2.40;;;9.90;1.00;;;;;;2615134;54;20430;-77
2023/12/31 05:47:19;;;;;;;2.30;1.90;;;10.00;1.00;;;;;;2614573;54;20133;-77
2023/12/31 05:53:07;;;;;;;2.90;2.60;;;10.00;1.00;;;;;;2614650;54;20161;-76
2023/12/31 05:58:55;;;;;;;3.20;3.00;;;9.80;1.00;;;;;;2614900;54;20115;-77
2023/12/31 06:04:42;;;;;;;3.37;2.83;;;10.00;1.00;;;;;;2615643;54;20254;-78
2023/12/31 06:10:30;;;;;;;2.53;2.33;;;10.10;1.00;;;;;;2615299;47;20156;-78
2023/12/31 06:16:18;;;;;;;4.03;2.87;;;10.10;1.00;;;;;;2614792;54;20139;-78
2023/12/31 06:22:06;;;;;;;2.30;2.10;;;9.90;1.00;;;;;;2614699;54;20253;-76
2023/12/31 06:27:56;;;;;;;3.10;2.40;;;9.90;1.00;;;;;;2614856;54;20895;-74
2023/12/31 06:33:43;;;;;;;3.77;2.40;;;9.90;1.00;;;;;;2614249;54;20456;-72
2023/12/31 06:36:40;;;;;;;2.67;2.27;;;9.90;1.00;;;;;;2613775;54;20387;-73
2023/12/31 06:39:07;;;;;;;2.40;2.20;;;10.00;1.00;;;;;;2614620;54;20151;-75
2023/12/31 06:44:55;;;;;;;3.67;2.60;;;10.20;1.00;;;;;;2614893;39;20733;-73
2023/12/31 06:50:43;;;;;;;4.73;2.90;;;10.00;1.00;;;;;;2614227;54;20351;-74
2023/12/31 06:56:30;;;;;;;3.20;2.90;;;10.10;1.00;;;;;;2614173;54;20205;-73
2023/12/31 07:02:19;;;;;;;4.27;2.70;;;10.10;1.00;;;;;;2614201;54;20126;-74
2023/12/31 07:08:07;;;;;;;2.07;1.87;;;10.20;1.00;;;;;;2613909;54;20363;-75
2023/12/31 07:13:55;;;;;;;2.90;2.37;;;10.20;1.00;;;;;;2615494;54;20973;-75
2023/12/31 07:19:43;;;;;;;3.27;3.07;;;10.30;1.00;;;;;;2614742;54;20897;-72
2023/12/31 07:25:32;;;;;;;3.13;2.83;;;10.30;1.00;;;;;;2615057;54;20242;-72
2023/12/31 07:31:20;;;;;;;3.57;3.27;;;10.30;1.00;;;;;;2615182;54;20504;-77
2023/12/31 07:41:10;;;;;;;3.37;2.80;;;10.50;1.00;;;;;;2615046;54;20383;-74
2023/12/31 07:46:58;;;;;;;2.93;2.63;;;10.50;1.00;;;;;;2613972;54;20406;-73
2023/12/31 07:52:46;;;;;;;2.90;2.40;;;10.50;1.00;;;;;;2616076;54;20395;-77
2023/12/31 07:58:34;;;;;;;2.93;2.70;;;10.40;1.00;;;;;;2615680;54;20665;-76
2023/12/31 08:04:22;;;;;;;3.10;2.80;;;10.40;1.00;;;;;;2615634;54;20398;-76
2023/12/31 08:10:11;;;;;;;3.07;2.20;;;10.30;1.00;;;;;;2615351;54;20737;-77
2023/12/31 08:16:00;;;;;;;2.73;2.43;;;10.30;1.00;;;;;;2615935;31;20868;-76
2023/12/31 08:21:47;;;;;;;6.90;2.30;;;10.30;1.00;;;;;;2615828;54;20395;-75
2023/12/31 08:27:35;;;;;;;2.23;2.03;;;10.30;1.00;;;;;;2615523;54;20134;-76
2023/12/31 08:33:22;;;;;;;2.87;2.67;;;10.40;1.00;;;;;;2615350;39;20687;-77
2023/12/31 08:36:39;;;;;;;3.87;3.40;;;10.40;1.00;;;;;;2614994;54;20439;-76
2023/12/31 08:39:05;;;;;;;3.10;2.80;;;10.40;1.00;;;;;;2615475;54;20158;-75
2023/12/31 08:44:53;;;;;;;2.63;2.43;;;10.50;1.00;;;;;;2615572;54;20338;-76
2023/12/31 08:50:41;;;;;;;4.57;3.03;;;10.70;1.00;;;;;;2615127;54;20214;-77
2023/12/31 08:56:29;;;;;;;3.10;2.70;;;10.60;1.00;;;;;;2614991;54;20170;-75
2023/12/31 09:02:16;;;;;;;3.13;2.83;;;10.60;1.00;;;;;;2614894;54;20263;-76
2023/12/31 09:08:05;;;;;;;2.63;2.27;;;10.80;1.00;;;;;;2615217;54;20640;-76
2023/12/31 09:13:53;;;;;;;3.50;3.20;;;10.70;1.00;;;;;;2615038;54;21419;-76
2023/12/31 09:19:41;;;;;;;4.87;3.50;;;10.70;1.00;;;;;;2615104;54;20129;-76
2023/12/31 09:22:26;;;;;;;3.57;2.47;;;10.80;1.00;;;;;;2614944;54;20384;-76
2023/12/31 09:24:52;;;;;;;2.67;2.43;;;10.80;1.00;;;;;;2615192;54;20157;-74
2023/12/31 09:30:40;;;;;;;9.20;2.37;;;10.90;1.00;;;;;;2615278;54;20362;-75
2023/12/31 09:36:28;;;;;;;3.00;2.60;;;11.00;1.00;;;;;;2614436;54;20130;-75
2023/12/31 09:42:20;;;;;;;3.60;3.30;;;11.00;1.00;;;;;;2614643;54;20190;-75
2023/12/31 09:45:41;;;;;;;4.23;3.83;;;11.00;1.00;;;;;;2614933;54;20543;-75
2023/12/31 09:51:29;;;;;;;4.03;3.00;;;11.00;1.00;;;;;;2614895;54;20375;-75
2023/12/31 09:57:20;;;;;;;3.77;3.30;;;11.10;1.00;;;;;;2614753;54;20394;-75
2023/12/31 10:03:09;;;;;;;4.17;3.77;;;11.30;1.00;;;;;;2614825;54;20399;-75
2023/12/31 10:08:57;;;;;;;3.03;2.83;;;11.40;1.00;;;;;;2614872;54;20364;-76
2023/12/31 10:14:45;;;;;;;5.07;3.70;;;11.50;1.00;;;;;;2614711;54;20432;-75
2023/12/31 10:20:38;;;;;;;5.37;3.10;;;14.00;1.00;;;;;;2614834;54;20399;-76
2023/12/31 10:26:26;;;;;;;4.67;4.33;;;13.40;1.00;;;;;;2614474;54;20488;-76
2023/12/31 10:32:14;;;;;;;4.90;4.50;;;13.60;1.00;;;;;;2614795;54;20680;-76
2023/12/31 10:38:05;;;;;;;4.33;3.87;;;13.60;1.00;;;;;;2615151;54;20182;-76
2023/12/31 10:41:14;;;;;;;5.63;4.43;;;12.20;1.00;;;;;;2615027;54;20376;-77
2023/12/31 10:43:40;;;;;;;4.67;4.27;;;11.90;1.00;;;;;;2614772;54;20447;-75
2023/12/31 10:49:30;;;;;;;3.70;3.40;;;11.70;1.00;;;;;;2614378;54;20467;-75
2023/12/31 10:55:17;;;;;;;3.00;2.70;;;11.50;1.00;;;;;;2614720;54;20427;-75
2023/12/31 11:01:05;;;;;;;3.70;3.40;;;11.70;1.00;;;;;;2614957;54;20157;-75
2023/12/31 11:06:55;;;;;;;3.17;2.90;;;11.80;1.00;;;;;;2615179;54;21020;-74
2023/12/31 11:12:48;;;;;;;2.77;2.57;;;11.50;1.00;;;;;;2614760;54;20423;-73
2023/12/31 11:25:03;;;;;;;3.90;3.30;;;11.40;1.00;;;;;;2615271;54;20399;-74
2023/12/31 11:30:59;;;;;;;2.47;2.37;;;11.30;1.00;;;;;;2615200;39;20865;-71
2023/12/31 11:36:47;;;;;;;3.00;2.53;;;11.00;1.00;;;;;;2613854;54;20423;-73
2023/12/31 11:45:56;;;;;;;1.80;1.70;;;10.70;1.00;;;;;;2614351;54;20992;-72
2023/12/31 11:51:57;;;;;;;2.80;1.60;;;10.60;1.00;;;;;;2614357;54;20122;-72
2023/12/31 11:57:48;;;;;;;1.87;1.77;;;10.40;1.00;;;;;;2615217;54;21055;-74
2023/12/31 12:03:36;;;;;;;1.40;1.30;;;10.00;99.90;;;;;;2615224;54;20401;-72
2023/12/31 12:09:31;;;;;;;1.60;1.20;;;9.90;1.00;;;;;;2614625;54;20463;-72
2023/12/31 12:15:19;;;;;;;1.23;1.00;;;10.00;1.00;;;;;;2614905;54;20439;-73
2023/12/31 12:21:10;;;;;;;1.03;0.93;;;9.90;1.00;;;;;;2615037;54;20129;-74
2023/12/31 12:27:03;;;;;;;2.87;1.00;;;9.30;1.00;;;;;;2615218;47;20412;-72
2023/12/31 12:32:51;;;;;;;1.00;0.60;;;9.40;1.00;;;;;;2614908;54;20394;-72
2023/12/31 12:38:40;;;;;;;0.97;0.70;;;8.80;1.00;;;;;;2614811;54;20362;-72
2023/12/31 12:41:29;;;;;;;1.00;0.80;;;8.70;99.90;;;;;;2614318;54;20434;-71
2023/12/31 12:50:11;;;;;;;1.20;0.53;;;8.80;1.00;;;;;;2614912;54;20414;-75
2023/12/31 12:55:59;;;;;;;0.80;0.60;;;9.20;1.00;;;;;;2615437;54;20802;-74
2023/12/31 13:01:47;;;;;;;1.47;1.00;;;9.30;1.00;;;;;;2615216;54;20166;-74
2023/12/31 13:07:35;;;;;;;1.27;0.90;;;9.60;1.00;;;;;;2615268;54;20149;-74
2023/12/31 13:13:23;;;;;;;1.33;0.80;;;9.60;1.00;;;;;;2615480;54;20178;-75
2023/12/31 13:19:11;;;;;;;2.40;0.90;;;9.70;1.00;;;;;;2615005;54;20472;-75
2023/12/31 13:24:58;;;;;;;3.03;0.90;;;9.40;1.00;;;;;;2615750;39;20523;-75
2023/12/31 13:30:47;;;;;;;1.67;0.70;;;9.00;1.00;;;;;;2615161;54;20160;-75
2023/12/31 13:36:34;;;;;;;9.03;1.90;;;8.60;1.00;;;;;;2614914;54;20963;-74
2023/12/31 13:42:22;;;;;;;3.60;1.33;;;8.90;1.00;;;;;;2615012;54;20603;-74
2023/12/31 13:48:11;;;;;;;3.90;1.33;;;8.70;1.00;;;;;;2614966;54;20655;-74
2023/12/31 13:53:58;;;;;;;4.77;2.37;;;8.60;1.00;;;;;;2615159;54;20369;-75
2023/12/31 13:59:46;;;;;;;3.83;1.10;;;8.50;1.00;;;;;;2615004;54;20721;-75
2023/12/31 14:05:33;;;;;;;1.93;1.20;;;8.40;1.00;;;;;;2614575;54;20171;-73
2023/12/31 14:11:21;;;;;;;1.93;0.80;;;8.70;1.00;;;;;;2614756;47;20132;-72
2023/12/31 14:17:09;;;;;;;3.00;0.90;;;9.20;1.00;;;;;;2614575;54;20134;-73
2023/12/31 14:22:57;;;;;;;1.40;0.90;;;8.90;1.00;;;;;;2614521;54;20233;-72
2023/12/31 14:28:45;;;;;;;6.50;0.97;;;8.60;1.00;;;;;;2614875;54;20360;-73
2023/12/31 14:34:33;;;;;;;1.07;0.73;;;8.30;1.00;;;;;;2614998;54;20159;-72
2023/12/31 14:40:20;;;;;;;1.63;0.80;;;8.20;1.00;;;;;;2614437;54;20758;-72
2023/12/31 14:46:08;;;;;;;0.90;0.73;;;8.10;1.00;;;;;;2614285;54;20149;-71
2023/12/31 14:51:56;;;;;;;3.17;1.30;;;8.00;1.00;;;;;;2614175;54;20142;-71
2023/12/31 14:57:44;;;;;;;1.40;1.30;;;7.80;1.00;;;;;;2614580;54;20131;-72
2023/12/31 15:03:32;;;;;;;2.13;0.90;;;7.90;1.00;;;;;;2615464;31;20911;-72
2023/12/31 15:09:21;;;;;;;4.63;1.37;;;8.00;1.00;;;;;;2614339;54;20387;-72
2023/12/31 15:15:08;;;;;;;1.60;1.20;;;8.00;1.00;;;;;;2614254;54;20401;-73
2023/12/31 15:20:56;;;;;;;5.20;1.50;;;8.10;1.00;;;;;;2614199;54;20156;-72
2023/12/31 15:26:44;;;;;;;2.50;1.50;;;8.10;1.00;;;;;;2613988;54;20401;-72
2023/12/31 15:32:34;;;;;;;11.20;1.60;;;7.90;1.00;;;;;;2615221;54;20152;-72
2023/12/31 15:38:22;;;;;;;6.13;1.70;;;7.90;1.00;;;;;;2615086;54;20353;-74
2023/12/31 15:44:29;;;;;;;4.63;2.20;;;7.90;1.00;;;;;;2613907;54;20417;-74
2023/12/31 15:50:16;;;;;;;4.53;2.40;;;7.80;1.00;;;;;;2613287;54;20690;-72
2023/12/31 15:56:04;;;;;;;9.80;4.80;;;7.90;1.00;;;;;;2614057;54;20133;-73
2023/12/31 16:01:51;;;;;;;6.60;3.83;;;8.00;1.00;;;;;;2613575;54;20373;-72
2023/12/31 16:07:38;;;;;;;14.53;7.17;;;8.10;1.00;;;;;;2613816;54;20154;-72
2023/12/31 16:13:26;;;;;;;6.90;4.30;;;8.40;1.00;;;;;;2613519;54;20239;-72
2023/12/31 16:19:14;;;;;;;10.77;3.33;;;8.70;1.00;;;;;;2614969;54;20149;-73
2023/12/31 16:25:02;;;;;;;8.23;2.67;;;9.00;1.00;;;;;;2614868;54;20364;-71
2023/12/31 16:28:06;;;;;;;8.13;3.17;;;9.00;1.00;;;;;;2615115;54;20473;-72
2023/12/31 16:30:32;;;;;;;5.30;3.23;;;9.00;1.00;;;;;;2615005;54;20407;-72
2023/12/31 16:36:19;;;;;;;8.30;2.77;;;8.80;1.00;;;;;;2615008;54;20664;-76
2023/12/31 16:45:58;;;;;;;5.40;2.47;;;8.90;1.00;;;;;;2614755;54;20458;-76
2023/12/31 16:51:46;;;;;;;7.73;3.10;;;8.90;1.00;;;;;;2614913;54;20495;-77
2023/12/31 16:57:33;;;;;;;8.17;3.17;;;9.00;1.00;;;;;;2615072;54;20142;-76
2023/12/31 17:03:21;;;;;;;13.33;6.17;;;8.90;1.00;;;;;;2615399;39;20492;-78
2023/12/31 17:09:09;;;;;;;15.30;8.03;;;8.80;1.00;;;;;;2615357;39;20540;-76
2023/12/31 17:14:57;;;;;;;16.97;5.93;;;9.00;1.00;;;;;;2614163;54;20392;-77
2023/12/31 17:17:41;;;;;;;17.77;7.00;;;9.00;1.00;;;;;;2614568;54;20415;-77
2023/12/31 17:20:07;;;;;;;6.40;3.90;;;9.20;1.00;;;;;;2614896;54;20143;-77
2023/12/31 17:25:54;;;;;;;8.80;4.47;;;9.20;1.00;;;;;;2615229;54;20363;-76
2023/12/31 17:31:42;;;;;;;10.10;4.10;;;9.40;1.00;;;;;;2615028;54;20162;-72
2023/12/31 17:37:30;;;;;;;9.83;3.77;;;9.40;1.00;;;;;;2614697;54;20138;-73
2023/12/31 17:46:43;;;;;;;5.10;2.93;;;9.30;1.00;;;;;;2614933;46;20434;-73
2023/12/31 17:52:31;;;;;;;7.73;4.37;;;9.30;1.00;;;;;;2614808;54;20390;-77
2023/12/31 17:58:18;;;;;;;5.87;3.33;;;9.40;1.00;;;;;;2614985;54;20150;-77
2023/12/31 18:04:06;;;;;;;16.93;3.57;;;9.50;1.00;;;;;;2614819;54;20153;-74
2023/12/31 18:09:54;;;;;;;12.23;4.27;;;9.50;1.00;;;;;;2614842;54;20134;-76
2023/12/31 18:15:43;;;;;;;10.67;3.60;;;9.40;1.00;;;;;;2614802;54;20154;-76
2023/12/31 18:21:31;;;;;;;8.97;4.43;;;9.50;1.00;;;;;;2614952;54;20431;-77
2023/12/31 18:27:18;;;;;;;19.93;5.50;;;9.50;1.00;;;;;;2614708;54;20138;-76
2023/12/31 18:33:07;;;;;;;8.50;3.50;;;9.50;1.00;;;;;;2614901;54;20170;-74
2023/12/31 18:38:55;;;;;;;10.03;4.70;;;9.50;1.00;;;;;;2614806;54;20415;-77
2023/12/31 18:42:13;;;;;;;16.93;12.13;;;9.40;1.00;;;;;;2615053;54;20416;-78
2023/12/31 18:44:39;;;;;;;13.20;5.60;;;9.60;1.00;;;;;;2614756;54;20474;-76
2023/12/31 18:50:27;;;;;;;12.53;4.20;;;9.50;1.00;;;;;;2614749;54;20122;-77
2023/12/31 18:56:15;;;;;;;5.80;3.20;;;9.50;1.00;;;;;;2614625;54;20389;-76
2023/12/31 19:02:03;;;;;;;10.40;4.20;;;9.50;1.00;;;;;;2614649;54;20131;-76
2023/12/31 19:07:51;;;;;;;14.30;5.17;;;9.60;1.00;;;;;;2614498;54;20150;-78
2023/12/31 19:13:38;;;;;;;9.20;3.73;;;9.40;1.00;;;;;;2614375;54;20969;-73
2023/12/31 19:19:27;;;;;;;14.30;3.87;;;9.30;1.00;;;;;;2614404;54;20194;-72
2023/12/31 19:25:15;;;;;;;7.33;4.27;;;9.20;1.00;;;;;;2614479;54;20929;-78
2023/12/31 19:31:03;;;;;;;8.90;4.67;;;9.40;1.00;;;;;;2614581;54;20141;-77
2023/12/31 19:36:50;;;;;;;8.57;2.93;;;9.50;1.00;;;;;;2613864;54;20339;-77
2023/12/31 19:46:44;;;;;;;3.10;2.10;;;9.40;1.00;;;;;;2614162;54;20395;-78
2023/12/31 19:52:31;;;;;;;6.50;2.57;;;9.40;1.00;;;;;;2614157;54;20960;-78
2023/12/31 19:58:18;;;;;;;7.23;2.60;;;9.30;1.00;;;;;;2614304;54;20174;-77
2023/12/31 20:04:06;;;;;;;4.27;2.30;;;9.20;1.00;;;;;;2614200;54;20167;-74
2023/12/31 20:09:54;;;;;;;8.13;3.27;;;9.30;1.00;;;;;;2614519;46;20141;-77
2023/12/31 20:15:42;;;;;;;15.13;5.00;;;9.30;1.00;;;;;;2614348;46;20130;-77
2023/12/31 20:21:30;;;;;;;11.50;3.27;;;9.30;1.00;;;;;;2615424;54;20237;-78
2023/12/31 20:27:17;;;;;;;7.13;3.10;;;9.30;1.00;;;;;;2615201;54;20165;-77
2023/12/31 20:33:05;;;;;;;9.67;5.50;;;8.80;1.00;;;;;;2615223;54;20171;-76
2023/12/31 20:38:54;;;;;;;5.83;3.97;;;8.40;1.00;;;;;;2615282;54;20674;-78
2023/12/31 20:42:13;;;;;;;17.73;5.40;;;8.50;1.00;;;;;;2615033;54;20419;-76
2023/12/31 20:44:39;;;;;;;10.43;5.53;;;8.60;1.00;;;;;;2614107;47;20451;-77
2023/12/31 20:50:27;;;;;;;9.73;4.97;;;8.50;99.90;;;;;;2615093;39;20552;-77
2023/12/31 20:56:16;;;;;;;14.30;6.83;;;8.30;1.00;;;;;;2614443;54;20160;-76
2023/12/31 21:02:05;;;;;;;10.83;3.20;;;8.50;1.00;;;;;;2614853;54;20387;-77
2023/12/31 21:07:53;;;;;;;5.53;3.10;;;8.30;1.00;;;;;;2614694;46;20483;-76
2023/12/31 21:13:41;;;;;;;7.57;3.03;;;8.20;1.00;;;;;;2614529;54;20133;-77
2023/12/31 21:19:29;;;;;;;7.97;3.50;;;7.80;99.90;;;;;;2614590;54;20390;-77
2023/12/31 21:25:16;;;;;;;7.63;3.53;;;7.60;99.90;;;;;;2614712;54;20145;-77
2023/12/31 21:31:04;;;;;;;9.80;4.20;;;7.70;52.80;;;;;;2614554;54;21021;-76
2023/12/31 21:33:49;;;;;;;6.10;3.40;;;7.60;1.00;;;;;;2614623;54;20590;-77
2023/12/31 21:36:15;;;;;;;8.43;3.30;;;7.60;99.90;;;;;;2614176;54;20158;-75
2023/12/31 21:39:19;;;;;;;7.63;3.90;;;7.60;99.90;;;;;;2614514;54;20411;-76
2023/12/31 21:41:44;;;;;;;11.43;7.03;;;7.60;99.90;;;;;;2614882;54;20398;-78
2023/12/31 21:50:54;;;;;;;10.67;4.53;;;7.80;83.40;;;;;;2615041;54;20440;-78
2023/12/31 21:56:42;;;;;;;11.10;6.70;;;7.90;41.50;;;;;;2614756;54;20174;-78
2023/12/31 22:02:30;;;;;;;10.53;4.20;;;7.90;22.20;;;;;;2614937;54;20404;-76
2023/12/31 22:08:18;;;;;;;7.33;3.77;;;7.90;9.00;;;;;;2614643;54;20394;-77
2023/12/31 22:14:06;;;;;;;7.40;3.17;;;8.10;1.00;;;;;;2614915;54;20154;-77
2023/12/31 22:19:53;;;;;;;4.97;3.60;;;8.30;1.00;;;;;;2614356;54;20125;-76
2023/12/31 22:25:41;;;;;;;10.10;6.57;;;8.40;1.00;;;;;;2614717;54;20143;-77
2023/12/31 22:31:29;;;;;;;8.47;2.97;;;8.30;1.00;;;;;;2614724;54;20209;-76
2023/12/31 22:37:17;;;;;;;7.97;6.40;;;8.60;1.00;;;;;;2614584;54;20507;-77
2023/12/31 22:43:05;;;;;;;14.77;8.93;;;8.60;1.00;;;;;;2615322;39;20543;-77
2023/12/31 22:46:17;;;;;;;8.90;5.00;;;8.70;1.00;;;;;;2614422;54;20406;-78
2023/12/31 22:48:42;;;;;;;16.17;10.03;;;8.80;1.00;;;;;;2613693;47;21433;-79
2023/12/31 22:54:30;;;;;;;8.47;3.93;;;8.60;1.00;;;;;;2614570;54;20162;-73
2023/12/31 23:00:19;;;;;;;9.73;6.07;;;8.70;1.00;;;;;;2614013;54;20126;-72
2023/12/31 23:06:06;;;;;;;115.77;93.43;;;8.80;1.00;;;;;;2615004;39;20794;-73
2023/12/31 23:11:54;;;;;;;161.20;99.57;;;8.70;1.00;;;;;;2614342;54;20136;-73
2023/12/31 23:17:42;;;;;;;69.17;49.07;;;8.80;1.00;;;;;;2614503;54;20129;-72
2023/12/31 23:23:29;;;;;;;48.37;31.23;;;8.70;1.00;;;;;;2614584;39;20486;-74
2023/12/31 23:29:17;;;;;;;44.17;31.80;;;8.70;1.00;;;;;;2614249;54;20134;-72
2023/12/31 23:35:05;;;;;;;34.90;23.47;;;8.70;1.00;;;;;;2614525;54;20180;-71
2023/12/31 23:40:52;;;;;;;17.40;14.23;;;8.80;1.00;;;;;;2613962;54;20402;-73
2023/12/31 23:50:46;;;;;;;22.50;13.60;;;9.10;1.00;;;;;;2614227;54;20381;-72
2023/12/31 23:56:33;;;;;;;16.60;12.50;;;9.10;1.00;;;;;;2615367;54;20399;-72
